sensor_id;sensor_type;location;lat;lon;timestamp;pressure;altitude;pressure_sealevel;temperature;humidity
66479;BME280;53294;47.912;13.526;2023-10-31T00:00:17;94597.22;;;13.48;73.48
66479;BME280;53294;47.912;13.526;2023-10-31T00:02:44;94591.59;;;13.21;75.83
66479;BME280;53294;47.912;13.526;2023-10-31T00:05:11;94585.69;;;13.15;76.47
66479;BME280;53294;47.912;13.526;2023-10-31T00:07:37;94612.56;;;13.11;77.45
66479;BME280;53294;47.912;13.526;2023-10-31T00:10:04;94621.69;;;13.23;77.35
66479;BME280;53294;47.912;13.526;2023-10-31T00:12:32;94634.03;;;13.24;77.71
66479;BME280;53294;47.912;13.526;2023-10-31T00:14:58;94642.28;;;13.31;77.74
66479;BME280;53294;47.912;13.526;2023-10-31T00:17:25;94642.47;;;13.06;78.85
66479;BME280;53294;47.912;13.526;2023-10-31T00:19:52;94639.16;;;13.29;78.89
66479;BME280;53294;47.912;13.526;2023-10-31T00:22:18;94653.69;;;12.92;80.87
66479;BME280;53294;47.912;13.526;2023-10-31T00:24:46;94649.78;;;12.90;81.03
66479;BME280;53294;47.912;13.526;2023-10-31T00:27:12;94649.03;;;12.61;83.35
66479;BME280;53294;47.912;13.526;2023-10-31T00:29:41;94657.88;;;12.46;84.26
66479;BME280;53294;47.912;13.526;2023-10-31T00:32:07;94653.38;;;12.50;83.72
66479;BME280;53294;47.912;13.526;2023-10-31T00:34:34;94656.41;;;12.20;85.16
66479;BME280;53294;47.912;13.526;2023-10-31T00:37:01;94669.09;;;12.07;86.63
66479;BME280;53294;47.912;13.526;2023-10-31T00:39:27;94674.88;;;11.93;87.51
66479;BME280;53294;47.912;13.526;2023-10-31T00:41:54;94665.91;;;11.77;89.09
66479;BME280;53294;47.912;13.526;2023-10-31T00:44:21;94670.41;;;11.73;90.30
66479;BME280;53294;47.912;13.526;2023-10-31T00:46:47;94671.66;;;11.50;91.64
66479;BME280;53294;47.912;13.526;2023-10-31T00:49:14;94677.81;;;11.51;91.56
66479;BME280;53294;47.912;13.526;2023-10-31T00:51:41;94661.47;;;11.56;90.91
66479;BME280;53294;47.912;13.526;2023-10-31T00:54:08;94661.47;;;11.31;92.20
66479;BME280;53294;47.912;13.526;2023-10-31T00:56:34;94652.28;;;11.32;92.66
66479;BME280;53294;47.912;13.526;2023-10-31T00:59:01;94665.06;;;11.11;94.28
66479;BME280;53294;47.912;13.526;2023-10-31T01:01:28;94681.63;;;11.01;95.46
66479;BME280;53294;47.912;13.526;2023-10-31T01:03:55;94681.19;;;11.23;93.86
66479;BME280;53294;47.912;13.526;2023-10-31T01:06:21;94680.06;;;11.12;95.46
66479;BME280;53294;47.912;13.526;2023-10-31T01:08:48;94677.03;;;11.38;92.94
66479;BME280;53294;47.912;13.526;2023-10-31T01:11:15;94678.16;;;11.49;92.12
66479;BME280;53294;47.912;13.526;2023-10-31T01:13:41;94695.75;;;11.35;92.62
66479;BME280;53294;47.912;13.526;2023-10-31T01:16:08;94696.66;;;11.26;94.66
66479;BME280;53294;47.912;13.526;2023-10-31T01:18:35;94692.50;;;11.17;95.72
66479;BME280;53294;47.912;13.526;2023-10-31T01:21:02;94710.19;;;11.30;94.54
66479;BME280;53294;47.912;13.526;2023-10-31T01:23:28;94695.50;;;11.64;89.76
66479;BME280;53294;47.912;13.526;2023-10-31T01:25:55;94703.34;;;11.45;86.65
66479;BME280;53294;47.912;13.526;2023-10-31T01:28:22;94708.59;;;11.04;89.58
66479;BME280;53294;47.912;13.526;2023-10-31T01:30:48;94712.78;;;11.26;89.15
66479;BME280;53294;47.912;13.526;2023-10-31T01:33:15;94705.84;;;11.38;88.18
66479;BME280;53294;47.912;13.526;2023-10-31T01:35:42;94691.25;;;11.51;86.44
66479;BME280;53294;47.912;13.526;2023-10-31T01:38:09;94702.69;;;11.36;87.67
66479;BME280;53294;47.912;13.526;2023-10-31T01:40:36;94704.25;;;11.24;88.49
66479;BME280;53294;47.912;13.526;2023-10-31T01:43:03;94702.72;;;11.23;89.92
66479;BME280;53294;47.912;13.526;2023-10-31T01:45:29;94698.22;;;11.27;89.45
66479;BME280;53294;47.912;13.526;2023-10-31T01:47:56;94699.44;;;11.18;89.02
66479;BME280;53294;47.912;13.526;2023-10-31T01:50:23;94703.78;;;10.98;90.38
66479;BME280;53294;47.912;13.526;2023-10-31T01:52:50;94700.75;;;10.99;91.10
66479;BME280;53294;47.912;13.526;2023-10-31T01:55:18;94702.53;;;10.95;90.81
66479;BME280;53294;47.912;13.526;2023-10-31T01:57:45;94699.31;;;11.02;91.16
66479;BME280;53294;47.912;13.526;2023-10-31T02:00:14;94712.19;;;11.08;90.19
66479;BME280;53294;47.912;13.526;2023-10-31T02:02:41;94713.47;;;10.77;90.45
66479;BME280;53294;47.912;13.526;2023-10-31T02:05:11;94705.34;;;10.99;87.77
66479;BME280;53294;47.912;13.526;2023-10-31T02:07:37;94694.22;;;10.75;88.46
66479;BME280;53294;47.912;13.526;2023-10-31T02:10:05;94700.41;;;10.88;91.26
66479;BME280;53294;47.912;13.526;2023-10-31T02:12:32;94714.19;;;10.99;91.39
66479;BME280;53294;47.912;13.526;2023-10-31T02:14:59;94721.50;;;11.11;89.98
66479;BME280;53294;47.912;13.526;2023-10-31T02:17:26;94721.66;;;10.93;88.86
66479;BME280;53294;47.912;13.526;2023-10-31T02:19:53;94729.03;;;10.84;89.49
66479;BME280;53294;47.912;13.526;2023-10-31T02:22:20;94734.59;;;11.12;88.45
66479;BME280;53294;47.912;13.526;2023-10-31T02:24:47;94741.16;;;11.03;84.37
66479;BME280;53294;47.912;13.526;2023-10-31T02:27:13;94744.13;;;11.22;83.83
66479;BME280;53294;47.912;13.526;2023-10-31T02:29:40;94745.03;;;11.26;83.18
66479;BME280;53294;47.912;13.526;2023-10-31T02:32:07;94759.34;;;11.18;82.12
66479;BME280;53294;47.912;13.526;2023-10-31T02:34:33;94767.22;;;11.23;80.64
66479;BME280;53294;47.912;13.526;2023-10-31T02:37:01;94781.50;;;11.15;80.15
66479;BME280;53294;47.912;13.526;2023-10-31T02:39:28;94785.31;;;10.81;82.01
66479;BME280;53294;47.912;13.526;2023-10-31T02:41:54;94798.47;;;10.94;81.80
66479;BME280;53294;47.912;13.526;2023-10-31T02:44:21;94789.88;;;10.68;81.32
66479;BME280;53294;47.912;13.526;2023-10-31T02:46:48;94794.38;;;10.34;82.88
66479;BME280;53294;47.912;13.526;2023-10-31T02:49:15;94796.94;;;10.51;81.74
66479;BME280;53294;47.912;13.526;2023-10-31T02:51:41;94804.34;;;10.33;83.00
66479;BME280;53294;47.912;13.526;2023-10-31T02:54:08;94798.53;;;10.52;81.16
66479;BME280;53294;47.912;13.526;2023-10-31T02:56:35;94817.78;;;10.33;83.03
66479;BME280;53294;47.912;13.526;2023-10-31T02:59:01;94814.44;;;10.28;82.88
66479;BME280;53294;47.912;13.526;2023-10-31T03:01:28;94815.00;;;10.42;82.84
66479;BME280;53294;47.912;13.526;2023-10-31T03:03:56;94818.84;;;10.32;82.64
66479;BME280;53294;47.912;13.526;2023-10-31T03:06:22;94815.72;;;10.51;81.39
66479;BME280;53294;47.912;13.526;2023-10-31T03:08:49;94817.25;;;10.40;82.76
66479;BME280;53294;47.912;13.526;2023-10-31T03:11:23;94820.84;;;10.44;82.56
66479;BME280;53294;47.912;13.526;2023-10-31T03:13:51;94826.25;;;10.56;81.55
66479;BME280;53294;47.912;13.526;2023-10-31T03:16:19;94831.47;;;10.62;81.65
66479;BME280;53294;47.912;13.526;2023-10-31T03:18:46;94842.19;;;10.62;80.75
66479;BME280;53294;47.912;13.526;2023-10-31T03:21:13;94842.22;;;10.32;81.05
66479;BME280;53294;47.912;13.526;2023-10-31T03:23:43;94850.13;;;9.98;85.55
66479;BME280;53294;47.912;13.526;2023-10-31T03:26:09;94854.41;;;10.20;82.57
66479;BME280;53294;47.912;13.526;2023-10-31T03:28:36;94852.63;;;10.03;84.16
66479;BME280;53294;47.912;13.526;2023-10-31T03:31:03;94862.06;;;10.10;84.72
66479;BME280;53294;47.912;13.526;2023-10-31T03:33:30;94867.94;;;10.03;84.38
66479;BME280;53294;47.912;13.526;2023-10-31T03:35:57;94862.66;;;9.85;85.60
66479;BME280;53294;47.912;13.526;2023-10-31T03:38:23;94870.06;;;9.88;85.10
66479;BME280;53294;47.912;13.526;2023-10-31T03:40:50;94874.56;;;10.05;83.81
66479;BME280;53294;47.912;13.526;2023-10-31T03:43:17;94881.59;;;9.80;85.22
66479;BME280;53294;47.912;13.526;2023-10-31T03:45:46;94872.75;;;9.88;85.30
66479;BME280;53294;47.912;13.526;2023-10-31T03:48:16;94863.63;;;9.81;85.73
66479;BME280;53294;47.912;13.526;2023-10-31T03:50:43;94865.44;;;9.98;84.56
66479;BME280;53294;47.912;13.526;2023-10-31T03:53:10;94871.34;;;9.82;85.54
66479;BME280;53294;47.912;13.526;2023-10-31T03:55:37;94883.88;;;9.61;87.43
66479;BME280;53294;47.912;13.526;2023-10-31T03:58:04;94877.94;;;9.85;86.45
66479;BME280;53294;47.912;13.526;2023-10-31T04:00:32;94862.94;;;9.93;86.15
66479;BME280;53294;47.912;13.526;2023-10-31T04:02:58;94866.75;;;9.92;85.24
66479;BME280;53294;47.912;13.526;2023-10-31T04:05:25;94866.00;;;10.12;84.21
66479;BME280;53294;47.912;13.526;2023-10-31T04:07:52;94874.31;;;9.89;83.81
66479;BME280;53294;47.912;13.526;2023-10-31T04:10:19;94885.91;;;9.73;85.79
66479;BME280;53294;47.912;13.526;2023-10-31T04:12:46;94883.81;;;9.78;85.64
66479;BME280;53294;47.912;13.526;2023-10-31T04:15:13;94882.91;;;9.74;85.79
66479;BME280;53294;47.912;13.526;2023-10-31T04:17:40;94883.38;;;9.67;86.43
66479;BME280;53294;47.912;13.526;2023-10-31T04:20:07;94885.53;;;9.83;87.00
66479;BME280;53294;47.912;13.526;2023-10-31T04:22:34;94875.59;;;9.83;86.57
66479;BME280;53294;47.912;13.526;2023-10-31T04:25:01;94868.59;;;10.00;85.42
66479;BME280;53294;47.912;13.526;2023-10-31T04:27:28;94879.41;;;9.82;85.26
66479;BME280;53294;47.912;13.526;2023-10-31T04:29:54;94886.69;;;9.73;86.18
66479;BME280;53294;47.912;13.526;2023-10-31T04:32:21;94888.34;;;9.86;85.74
66479;BME280;53294;47.912;13.526;2023-10-31T04:34:48;94886.03;;;9.76;85.97
66479;BME280;53294;47.912;13.526;2023-10-31T04:37:15;94880.91;;;10.01;84.80
66479;BME280;53294;47.912;13.526;2023-10-31T04:39:41;94885.81;;;10.29;82.26
66479;BME280;53294;47.912;13.526;2023-10-31T04:42:08;94885.16;;;10.32;81.49
66479;BME280;53294;47.912;13.526;2023-10-31T04:44:34;94880.44;;;10.29;82.64
66479;BME280;53294;47.912;13.526;2023-10-31T04:47:01;94896.25;;;10.21;80.37
66479;BME280;53294;47.912;13.526;2023-10-31T04:49:28;94910.50;;;10.13;83.43
66479;BME280;53294;47.912;13.526;2023-10-31T04:51:55;94892.94;;;10.24;82.80
66479;BME280;53294;47.912;13.526;2023-10-31T04:54:21;94900.97;;;10.24;81.88
66479;BME280;53294;47.912;13.526;2023-10-31T04:56:49;94889.81;;;10.52;80.07
66479;BME280;53294;47.912;13.526;2023-10-31T04:59:15;94902.78;;;10.50;80.22
66479;BME280;53294;47.912;13.526;2023-10-31T05:01:48;94916.00;;;10.55;78.99
66479;BME280;53294;47.912;13.526;2023-10-31T05:04:15;94902.66;;;10.68;78.71
66479;BME280;53294;47.912;13.526;2023-10-31T05:06:42;94914.19;;;10.30;79.71
66479;BME280;53294;47.912;13.526;2023-10-31T05:09:09;94920.00;;;10.02;80.58
66479;BME280;53294;47.912;13.526;2023-10-31T05:11:37;94929.63;;;10.03;81.64
66479;BME280;53294;47.912;13.526;2023-10-31T05:14:04;94939.31;;;10.25;81.25
66479;BME280;53294;47.912;13.526;2023-10-31T05:16:31;94938.75;;;10.11;82.16
66479;BME280;53294;47.912;13.526;2023-10-31T05:18:58;94944.78;;;10.07;81.33
66479;BME280;53294;47.912;13.526;2023-10-31T05:21:26;94946.50;;;10.12;80.96
66479;BME280;53294;47.912;13.526;2023-10-31T05:23:53;94947.31;;;10.04;80.72
66479;BME280;53294;47.912;13.526;2023-10-31T05:26:20;94926.53;;;10.31;80.16
66479;BME280;53294;47.912;13.526;2023-10-31T05:28:47;94937.78;;;10.24;78.58
66479;BME280;53294;47.912;13.526;2023-10-31T05:31:17;94934.16;;;10.20;79.32
66479;BME280;53294;47.912;13.526;2023-10-31T05:33:44;94928.13;;;10.23;76.57
66479;BME280;53294;47.912;13.526;2023-10-31T05:36:24;94948.63;;;10.28;75.61
66479;BME280;53294;47.912;13.526;2023-10-31T05:38:51;94954.09;;;10.10;75.27
66479;BME280;53294;47.912;13.526;2023-10-31T05:41:18;94958.22;;;9.99;76.58
66479;BME280;53294;47.912;13.526;2023-10-31T05:43:45;94966.00;;;9.83;74.16
66479;BME280;53294;47.912;13.526;2023-10-31T05:46:12;94965.25;;;9.65;76.65
66479;BME280;53294;47.912;13.526;2023-10-31T05:48:44;94976.75;;;9.74;76.45
66479;BME280;53294;47.912;13.526;2023-10-31T05:51:18;94970.63;;;9.65;76.61
66479;BME280;53294;47.912;13.526;2023-10-31T05:53:46;94969.50;;;9.66;77.02
66479;BME280;53294;47.912;13.526;2023-10-31T05:56:14;94984.16;;;9.77;77.47
66479;BME280;53294;47.912;13.526;2023-10-31T05:58:42;94989.00;;;9.93;76.32
66479;BME280;53294;47.912;13.526;2023-10-31T06:01:09;94992.22;;;9.68;76.71
66479;BME280;53294;47.912;13.526;2023-10-31T06:03:36;94987.81;;;9.46;78.32
66479;BME280;53294;47.912;13.526;2023-10-31T06:06:03;94990.34;;;9.60;78.27
66479;BME280;53294;47.912;13.526;2023-10-31T06:08:30;94986.38;;;9.58;77.98
66479;BME280;53294;47.912;13.526;2023-10-31T06:10:57;94995.53;;;9.57;78.31
66479;BME280;53294;47.912;13.526;2023-10-31T06:13:24;95000.88;;;9.57;78.58
66479;BME280;53294;47.912;13.526;2023-10-31T06:15:54;95004.06;;;9.59;77.35
66479;BME280;53294;47.912;13.526;2023-10-31T06:18:26;94994.25;;;9.63;77.90
66479;BME280;53294;47.912;13.526;2023-10-31T06:20:53;94991.72;;;9.75;76.93
66479;BME280;53294;47.912;13.526;2023-10-31T06:23:20;95001.63;;;9.92;76.32
66479;BME280;53294;47.912;13.526;2023-10-31T06:25:47;95015.34;;;9.91;73.87
66479;BME280;53294;47.912;13.526;2023-10-31T06:28:14;95013.31;;;9.79;73.30
66479;BME280;53294;47.912;13.526;2023-10-31T06:30:41;94998.56;;;10.11;72.68
66479;BME280;53294;47.912;13.526;2023-10-31T06:33:08;94992.56;;;10.14;74.13
66479;BME280;53294;47.912;13.526;2023-10-31T06:35:37;94990.69;;;10.06;72.73
66479;BME280;53294;47.912;13.526;2023-10-31T06:38:03;95013.78;;;9.89;72.38
66479;BME280;53294;47.912;13.526;2023-10-31T06:40:30;95025.13;;;10.04;74.29
66479;BME280;53294;47.912;13.526;2023-10-31T06:42:57;95026.84;;;10.09;74.22
66479;BME280;53294;47.912;13.526;2023-10-31T06:45:24;95023.03;;;10.18;74.26
66479;BME280;53294;47.912;13.526;2023-10-31T06:47:50;95013.69;;;10.24;74.37
66479;BME280;53294;47.912;13.526;2023-10-31T06:50:17;95020.94;;;10.33;74.91
66479;BME280;53294;47.912;13.526;2023-10-31T06:52:46;95044.19;;;10.11;73.48
66479;BME280;53294;47.912;13.526;2023-10-31T06:55:13;95049.41;;;9.99;75.70
66479;BME280;53294;47.912;13.526;2023-10-31T06:57:40;95060.78;;;9.96;74.52
66479;BME280;53294;47.912;13.526;2023-10-31T07:00:07;95074.97;;;10.05;73.90
66479;BME280;53294;47.912;13.526;2023-10-31T07:02:36;95069.91;;;10.03;73.56
66479;BME280;53294;47.912;13.526;2023-10-31T07:05:03;95074.03;;;9.83;74.74
66479;BME280;53294;47.912;13.526;2023-10-31T07:07:30;95077.34;;;9.80;73.34
66479;BME280;53294;47.912;13.526;2023-10-31T07:09:56;95077.69;;;9.96;74.07
66479;BME280;53294;47.912;13.526;2023-10-31T07:12:24;95070.28;;;9.84;72.12
66479;BME280;53294;47.912;13.526;2023-10-31T07:14:50;95093.75;;;9.79;71.44
66479;BME280;53294;47.912;13.526;2023-10-31T07:17:17;95097.88;;;10.02;72.38
66479;BME280;53294;47.912;13.526;2023-10-31T07:19:44;95082.19;;;10.31;70.41
66479;BME280;53294;47.912;13.526;2023-10-31T07:22:11;95085.69;;;10.05;71.11
66479;BME280;53294;47.912;13.526;2023-10-31T07:24:37;95098.47;;;10.26;71.93
66479;BME280;53294;47.912;13.526;2023-10-31T07:27:04;95102.28;;;10.33;71.56
66479;BME280;53294;47.912;13.526;2023-10-31T07:29:31;95120.13;;;10.03;71.72
66479;BME280;53294;47.912;13.526;2023-10-31T07:31:58;95108.28;;;10.04;73.27
66479;BME280;53294;47.912;13.526;2023-10-31T07:34:25;95110.28;;;10.42;72.22
66479;BME280;53294;47.912;13.526;2023-10-31T07:36:51;95104.88;;;10.59;71.66
66479;BME280;53294;47.912;13.526;2023-10-31T07:39:18;95094.28;;;10.63;70.89
66479;BME280;53294;47.912;13.526;2023-10-31T07:41:45;95096.06;;;10.50;72.53
66479;BME280;53294;47.912;13.526;2023-10-31T07:44:12;95092.13;;;10.48;73.65
66479;BME280;53294;47.912;13.526;2023-10-31T07:46:39;95113.16;;;10.37;74.38
66479;BME280;53294;47.912;13.526;2023-10-31T07:49:05;95121.34;;;10.49;73.19
66479;BME280;53294;47.912;13.526;2023-10-31T07:51:32;95131.94;;;10.19;74.89
66479;BME280;53294;47.912;13.526;2023-10-31T07:53:59;95147.56;;;10.00;76.35
66479;BME280;53294;47.912;13.526;2023-10-31T07:56:25;95140.31;;;9.92;76.69
66479;BME280;53294;47.912;13.526;2023-10-31T07:58:52;95150.09;;;10.05;76.11
66479;BME280;53294;47.912;13.526;2023-10-31T08:01:22;95159.56;;;9.94;77.09
66479;BME280;53294;47.912;13.526;2023-10-31T08:03:49;95170.59;;;9.83;78.16
66479;BME280;53294;47.912;13.526;2023-10-31T08:06:16;95162.06;;;9.64;79.04
66479;BME280;53294;47.912;13.526;2023-10-31T08:08:42;95173.16;;;9.88;79.04
66479;BME280;53294;47.912;13.526;2023-10-31T08:11:10;95176.63;;;9.98;78.04
66479;BME280;53294;47.912;13.526;2023-10-31T08:13:38;95166.84;;;9.93;78.15
66479;BME280;53294;47.912;13.526;2023-10-31T08:16:05;95161.28;;;9.89;79.29
66479;BME280;53294;47.912;13.526;2023-10-31T08:18:33;95164.28;;;9.88;80.06
66479;BME280;53294;47.912;13.526;2023-10-31T08:21:00;95172.50;;;9.74;80.72
66479;BME280;53294;47.912;13.526;2023-10-31T08:23:28;95170.06;;;9.38;79.53
66479;BME280;53294;47.912;13.526;2023-10-31T08:25:55;95165.66;;;9.42;81.82
66479;BME280;53294;47.912;13.526;2023-10-31T08:28:22;95165.44;;;9.21;83.67
66479;BME280;53294;47.912;13.526;2023-10-31T08:30:49;95163.53;;;9.12;84.32
66479;BME280;53294;47.912;13.526;2023-10-31T08:33:15;95177.31;;;9.37;85.29
66479;BME280;53294;47.912;13.526;2023-10-31T08:35:42;95174.69;;;9.55;83.96
66479;BME280;53294;47.912;13.526;2023-10-31T08:38:09;95174.03;;;9.49;83.34
66479;BME280;53294;47.912;13.526;2023-10-31T08:40:49;95154.44;;;9.31;82.61
66479;BME280;53294;47.912;13.526;2023-10-31T08:43:16;95161.75;;;8.99;82.28
66479;BME280;53294;47.912;13.526;2023-10-31T08:45:43;95165.34;;;8.86;83.43
66479;BME280;53294;47.912;13.526;2023-10-31T08:48:10;95157.00;;;8.87;84.99
66479;BME280;53294;47.912;13.526;2023-10-31T08:50:36;95146.59;;;8.94;84.94
66479;BME280;53294;47.912;13.526;2023-10-31T08:53:04;95151.28;;;9.29;83.50
66479;BME280;53294;47.912;13.526;2023-10-31T08:55:31;95152.59;;;9.49;79.49
66479;BME280;53294;47.912;13.526;2023-10-31T08:57:57;95169.28;;;9.37;81.42
66479;BME280;53294;47.912;13.526;2023-10-31T09:00:24;95187.28;;;9.45;81.20
66479;BME280;53294;47.912;13.526;2023-10-31T09:02:51;95184.00;;;9.08;80.46
66479;BME280;53294;47.912;13.526;2023-10-31T09:05:18;95147.78;;;9.20;81.77
66479;BME280;53294;47.912;13.526;2023-10-31T09:07:45;95137.91;;;9.38;79.99
66479;BME280;53294;47.912;13.526;2023-10-31T09:10:12;95139.34;;;9.61;77.19
66479;BME280;53294;47.912;13.526;2023-10-31T09:12:39;95160.81;;;9.52;78.82
66479;BME280;53294;47.912;13.526;2023-10-31T09:15:06;95146.94;;;9.68;77.64
66479;BME280;53294;47.912;13.526;2023-10-31T09:17:33;95145.69;;;9.74;76.13
66479;BME280;53294;47.912;13.526;2023-10-31T09:20:00;95161.59;;;9.62;78.41
66479;BME280;53294;47.912;13.526;2023-10-31T09:22:26;95169.72;;;9.30;76.55
66479;BME280;53294;47.912;13.526;2023-10-31T09:24:53;95169.78;;;9.48;75.78
66479;BME280;53294;47.912;13.526;2023-10-31T09:27:20;95170.72;;;9.52;75.92
66479;BME280;53294;47.912;13.526;2023-10-31T09:29:47;95193.16;;;9.74;74.12
66479;BME280;53294;47.912;13.526;2023-10-31T09:32:14;95217.28;;;9.65;75.02
66479;BME280;53294;47.912;13.526;2023-10-31T09:34:41;95214.97;;;9.32;76.96
66479;BME280;53294;47.912;13.526;2023-10-31T09:37:08;95223.09;;;9.09;78.11
66479;BME280;53294;47.912;13.526;2023-10-31T09:39:35;95229.34;;;9.36;76.67
66479;BME280;53294;47.912;13.526;2023-10-31T09:42:02;95230.09;;;9.28;76.74
66479;BME280;53294;47.912;13.526;2023-10-31T09:44:29;95199.84;;;9.36;76.64
66479;BME280;53294;47.912;13.526;2023-10-31T09:46:56;95190.78;;;9.89;73.38
66479;BME280;53294;47.912;13.526;2023-10-31T09:49:23;95226.97;;;10.01;73.59
66479;BME280;53294;47.912;13.526;2023-10-31T09:51:51;95255.72;;;9.51;75.34
66479;BME280;53294;47.912;13.526;2023-10-31T09:54:18;95260.50;;;9.23;74.53
66479;BME280;53294;47.912;13.526;2023-10-31T09:56:45;95266.91;;;9.13;77.88
66479;BME280;53294;47.912;13.526;2023-10-31T09:59:14;95294.97;;;8.85;77.43
66479;BME280;53294;47.912;13.526;2023-10-31T10:01:42;95267.09;;;8.86;79.38
66479;BME280;53294;47.912;13.526;2023-10-31T10:04:09;95257.69;;;8.97;79.44
66479;BME280;53294;47.912;13.526;2023-10-31T10:06:48;95278.06;;;9.07;78.90
66479;BME280;53294;47.912;13.526;2023-10-31T10:09:15;95268.94;;;9.08;76.34
66479;BME280;53294;47.912;13.526;2023-10-31T10:11:42;95256.50;;;9.43;76.56
66479;BME280;53294;47.912;13.526;2023-10-31T10:14:11;95247.38;;;9.53;77.83
66479;BME280;53294;47.912;13.526;2023-10-31T10:16:38;95233.75;;;9.41;76.28
66479;BME280;53294;47.912;13.526;2023-10-31T10:19:21;95216.44;;;9.47;76.44
66479;BME280;53294;47.912;13.526;2023-10-31T10:21:56;95222.00;;;9.59;77.50
66479;BME280;53294;47.912;13.526;2023-10-31T10:24:24;95250.59;;;9.73;75.37
66479;BME280;53294;47.912;13.526;2023-10-31T10:26:51;95265.56;;;9.65;76.34
66479;BME280;53294;47.912;13.526;2023-10-31T10:29:18;95266.03;;;9.27;77.08
66479;BME280;53294;47.912;13.526;2023-10-31T10:31:45;95252.56;;;9.49;76.71
66479;BME280;53294;47.912;13.526;2023-10-31T10:34:15;95232.13;;;9.22;76.05
66479;BME280;53294;47.912;13.526;2023-10-31T10:36:48;95239.81;;;9.15;74.38
66479;BME280;53294;47.912;13.526;2023-10-31T10:39:28;95255.56;;;9.16;75.17
66479;BME280;53294;47.912;13.526;2023-10-31T10:41:55;95276.81;;;9.44;74.91
66479;BME280;53294;47.912;13.526;2023-10-31T10:44:33;95279.28;;;9.63;73.21
66479;BME280;53294;47.912;13.526;2023-10-31T10:47:05;95268.97;;;9.57;72.34
66479;BME280;53294;47.912;13.526;2023-10-31T10:49:35;95262.66;;;9.12;74.89
66479;BME280;53294;47.912;13.526;2023-10-31T10:55:03;95246.59;;;9.52;74.37
66479;BME280;53294;47.912;13.526;2023-10-31T11:00:32;95247.00;;;9.37;74.07
66479;BME280;53294;47.912;13.526;2023-10-31T11:02:59;95261.44;;;9.19;75.14
66479;BME280;53294;47.912;13.526;2023-10-31T11:05:26;95267.69;;;9.45;72.29
66479;BME280;53294;47.912;13.526;2023-10-31T11:07:55;95268.75;;;9.36;74.81
66479;BME280;53294;47.912;13.526;2023-10-31T11:10:27;95264.22;;;9.45;74.33
66479;BME280;53294;47.912;13.526;2023-10-31T11:12:53;95264.59;;;9.61;72.60
66479;BME280;53294;47.912;13.526;2023-10-31T11:15:21;95260.81;;;9.70;71.83
66479;BME280;53294;47.912;13.526;2023-10-31T11:17:49;95274.34;;;9.57;72.49
66479;BME280;53294;47.912;13.526;2023-10-31T11:20:17;95275.47;;;9.56;73.88
66479;BME280;53294;47.912;13.526;2023-10-31T11:22:46;95283.81;;;9.63;73.30
66479;BME280;53294;47.912;13.526;2023-10-31T11:25:18;95288.16;;;9.10;73.64
66479;BME280;53294;47.912;13.526;2023-10-31T11:28:18;95286.84;;;8.98;76.17
66479;BME280;53294;47.912;13.526;2023-10-31T11:30:49;95290.44;;;8.94;76.71
66479;BME280;53294;47.912;13.526;2023-10-31T11:33:19;95291.66;;;8.88;77.05
66479;BME280;53294;47.912;13.526;2023-10-31T11:35:50;95288.59;;;8.72;77.29
66479;BME280;53294;47.912;13.526;2023-10-31T11:38:30;95291.34;;;8.67;77.60
66479;BME280;53294;47.912;13.526;2023-10-31T11:41:00;95295.81;;;8.94;78.14
66479;BME280;53294;47.912;13.526;2023-10-31T11:46:27;95289.47;;;8.90;77.77
66479;BME280;53294;47.912;13.526;2023-10-31T11:48:56;95286.25;;;8.79;78.56
66479;BME280;53294;47.912;13.526;2023-10-31T11:51:24;95289.91;;;8.83;78.93
66479;BME280;53294;47.912;13.526;2023-10-31T11:53:51;95283.50;;;8.93;78.32
66479;BME280;53294;47.912;13.526;2023-10-31T11:56:19;95285.88;;;8.94;78.51
66479;BME280;53294;47.912;13.526;2023-10-31T11:58:55;95274.09;;;9.04;77.88
66479;BME280;53294;47.912;13.526;2023-10-31T12:01:22;95270.56;;;8.86;78.96
66479;BME280;53294;47.912;13.526;2023-10-31T12:03:49;95271.94;;;8.84;79.07
66479;BME280;53294;47.912;13.526;2023-10-31T12:06:18;95274.06;;;8.73;80.29
66479;BME280;53294;47.912;13.526;2023-10-31T12:08:47;95279.69;;;8.62;80.62
66479;BME280;53294;47.912;13.526;2023-10-31T12:11:19;95282.78;;;8.78;80.71
66479;BME280;53294;47.912;13.526;2023-10-31T12:14:01;95278.28;;;8.65;78.90
66479;BME280;53294;47.912;13.526;2023-10-31T12:16:30;95266.31;;;8.62;81.22
66479;BME280;53294;47.912;13.526;2023-10-31T12:19:01;95268.91;;;8.54;81.95
66479;BME280;53294;47.912;13.526;2023-10-31T12:21:44;95258.66;;;8.47;80.95
66479;BME280;53294;47.912;13.526;2023-10-31T12:24:15;95252.09;;;8.39;81.37
66479;BME280;53294;47.912;13.526;2023-10-31T12:26:42;95257.50;;;8.25;80.98
66479;BME280;53294;47.912;13.526;2023-10-31T12:29:19;95248.72;;;8.48;83.88
66479;BME280;53294;47.912;13.526;2023-10-31T12:31:48;95242.63;;;8.56;81.63
66479;BME280;53294;47.912;13.526;2023-10-31T12:34:16;95242.47;;;8.38;81.63
66479;BME280;53294;47.912;13.526;2023-10-31T12:36:46;95239.19;;;8.41;81.60
66479;BME280;53294;47.912;13.526;2023-10-31T12:39:14;95237.41;;;8.73;83.02
66479;BME280;53294;47.912;13.526;2023-10-31T12:41:43;95239.72;;;8.66;80.26
66479;BME280;53294;47.912;13.526;2023-10-31T12:44:12;95234.44;;;8.38;80.87
66479;BME280;53294;47.912;13.526;2023-10-31T12:46:40;95251.84;;;8.27;81.41
66479;BME280;53294;47.912;13.526;2023-10-31T12:49:11;95249.03;;;8.32;81.77
66479;BME280;53294;47.912;13.526;2023-10-31T12:54:28;95245.56;;;8.46;82.72
66479;BME280;53294;47.912;13.526;2023-10-31T12:57:08;95243.06;;;8.72;82.20
66479;BME280;53294;47.912;13.526;2023-10-31T12:59:37;95254.78;;;8.85;77.87
66479;BME280;53294;47.912;13.526;2023-10-31T13:02:07;95250.75;;;8.96;79.08
66479;BME280;53294;47.912;13.526;2023-10-31T13:04:35;95252.56;;;9.09;76.64
66479;BME280;53294;47.912;13.526;2023-10-31T13:07:06;95262.16;;;9.10;77.87
66479;BME280;53294;47.912;13.526;2023-10-31T13:09:35;95260.84;;;8.99;75.75